Metz, Missouri
Current Conditions -  °F | °C
As of 7:35 AM on Sunday 23 Nov 2014 (Local Time) from KPTS Reporting Station
Overcast Overcast  
Wind Chill: 58°   Ceiling: 1400
Heat Index: 58°   Visibility: 10mi
Dew Point: 58°   Wind: 7mph
Humidity: 99%   Direction: 170°S
Pressure: 29.52"   Gusts: NA
Location:  38°N, 94.44°W
Report Text: KPTS 231335Z AUTO 17006KT 10SM OVC014 15/15 A2952 RMK AO2 T01470146
Loading
Personal Weather Stations






























Interactive Weather Map New forecast layout! Learn more

10-Day Weather Forecast

Advertisements
Track Severe Weather on mobile